»·PEaware :: RSP322 KTEX-KASE

RSP322 :: KTEX-KASE

FLIGHT INFORMATION

Flight Status: Arrived
Operator: Unknown
More flights by this operator :: More flights under this callsign
Pilot: Jack B. (5846)
Aircraft: PIAGGIO P-180 AVANTI
(P180)
More flights by this aircraft type
Origin: KTEX Telluride Regl
United States
Destination: KASE Aspen-Pitkin Co/Sardy
United States
More flights between these airports :: More routes between these airports
Route: ETL V68 MTJ V361 DBL
File this flight plan on PilotEdge
Remarks:
Altitude:
(Current/Filed)
19,000ft
Speed:
(Current/Filed)
430kts
Departed: 06-Dec-18 03:27 PM
Arrived: 06-Dec-18 04:00 PM
Distance/Time
Traveled:
90nm/0:33
Distance/Time
To Go:
Arrived

Flight Plot

Page will automatically refresh every two minutes.


Map Options




Map Legend


Flown Route
Filed Route
Departure Airport
Arrival Airport
Navaid (VOR, NDB)
Fix

Horizontal Profiles

Position Reports

Time Latitude Longitude Heading Altitude Ground
Speed
06-Dec-18 15:10 37.953842 -107.901285 195 9060ft 0kts
06-Dec-18 15:11 37.953841 -107.901291 195 9060ft 0kts
06-Dec-18 15:12 37.953841 -107.901291 195 9060ft 0kts
06-Dec-18 15:13 37.953841 -107.901291 195 9060ft 0kts
06-Dec-18 15:14 37.953841 -107.901291 195 9060ft 0kts
06-Dec-18 15:15 37.953841 -107.901291 195 9060ft 0kts
06-Dec-18 15:16 37.953841 -107.901291 195 9060ft 0kts
06-Dec-18 15:17 37.953480 -107.901460 157 9054ft 8kts
06-Dec-18 15:18 37.953271 -107.901226 145 9052ft 0kts
06-Dec-18 15:19 37.953271 -107.901226 145 9052ft 0kts
06-Dec-18 15:20 37.953271 -107.901226 145 9052ft 0kts
06-Dec-18 15:21 37.953271 -107.901226 145 9052ft 0kts
06-Dec-18 15:22 37.953271 -107.901226 145 9052ft 0kts
06-Dec-18 15:23 37.953271 -107.901226 145 9052ft 0kts
06-Dec-18 15:24 37.953176 -107.900404 102 9056ft 20kts
06-Dec-18 15:25 37.951392 -107.897358 291 9043ft 0kts
06-Dec-18 15:26 37.954205 -107.911723 284 9352ft 125kts
06-Dec-18 15:27 37.961477 -107.955479 250 11947ft 131kts
06-Dec-18 15:28 37.967796 -108.001480 283 14493ft 142kts
06-Dec-18 15:29 37.984104 -108.050576 285 16712ft 171kts
06-Dec-18 15:30 38.000651 -108.106043 283 18960ft 192kts
06-Dec-18 15:31 38.021626 -108.186313 284 19018ft 276kts
06-Dec-18 15:32 38.088970 -108.222864 25 19006ft 348kts
06-Dec-18 15:33 38.172264 -108.157377 27 19018ft 354kts
06-Dec-18 15:34 38.256549 -108.092437 27 19019ft 355kts
06-Dec-18 15:35 38.340820 -108.027427 27 19015ft 355kts
06-Dec-18 15:36 38.425238 -107.962134 27 19013ft 355kts
06-Dec-18 15:37 38.509518 -107.897106 23 19000ft 354kts
06-Dec-18 15:38 38.598232 -107.844841 21 19012ft 352kts
06-Dec-18 15:39 38.686652 -107.792144 21 19008ft 352kts
06-Dec-18 15:40 38.764023 -107.714629 40 19038ft 357kts
06-Dec-18 15:41 38.836641 -107.627578 40 19015ft 358kts
06-Dec-18 15:42 38.909458 -107.540035 40 19007ft 359kts
06-Dec-18 15:43 38.982324 -107.452071 41 18738ft 367kts
06-Dec-18 15:44 39.057746 -107.360803 41 17773ft 377kts
06-Dec-18 15:45 39.133901 -107.268248 42 16447ft 371kts
06-Dec-18 15:46 39.207067 -107.179115 42 15957ft 337kts
06-Dec-18 15:47 39.274184 -107.097170 41 16010ft 333kts
06-Dec-18 15:48 39.341406 -107.014844 41 16016ft 332kts
06-Dec-18 15:49 39.403226 -106.968679 338 16110ft 229kts
06-Dec-18 15:50 39.468845 -106.992640 338 16044ft 255kts
06-Dec-18 15:51 39.531919 -106.972627 67 15104ft 266kts
06-Dec-18 15:52 39.496760 -106.921868 188 14144ft 196kts
06-Dec-18 15:53 39.441580 -106.926702 193 13999ft 193kts
06-Dec-18 15:54 39.393532 -106.941825 193 13092ft 169kts
06-Dec-18 15:55 39.353051 -106.931193 166 12365ft 171kts
06-Dec-18 15:56 39.309767 -106.909400 160 10818ft 148kts
06-Dec-18 15:57 39.271533 -106.890968 165 9299ft 121kts
06-Dec-18 15:59 39.232174 -106.873176 163 7750ft 140kts
06-Dec-18 16:00 39.221446 -106.866863 339 7751ft 14kts
06-Dec-18 16:01 39.220892 -106.866096 252 7759ft 7kts

Navigation Log

Ident Type
Flight plan parsing failed, navigation log unavailable